Flight Track Log - Related Links

Times and Time Zones

All times are in EST time to prevent confusion due to time zone crossing. See the NASA967 flight status page for this flight to view local times or setup timezone preferences in your user account.

Time Position Orientation Groundspeed Altitude Reporting Facility
EST Latitude Longitude Course Direction KTS MPH feet Rate Location/Type
Thu 06:52:03 PM 29.6258 -95.1628 58° Northeast 255 293 1,100  Level Houston Center
Thu 06:52:46 PM 29.6508 -95.1164 58° Northeast 280 322 2,300 783 Climbing Houston Center
Thu 06:53:12 PM 29.6667 -95.0933 52° Northeast 240 276 2,000 3,529 Descending Houston Center
Thu 06:53:54 PM 29.5683 -95.0642 166° South 382 440 6,300 5,129 Climbing Houston Center
Thu 06:54:14 PM 29.5478 -95.0689 191° South 441 507 7,300 5,410 Climbing Houston Center
Thu 06:54:55 PM 29.4908 -95.1336 225° Southwest 364 419 11,800 5,226 Climbing Houston Center
Thu 06:55:16 PM 29.4772 -95.1547 233° Southwest 370 426 12,700 2,164 Climbing Houston Center
Thu 06:55:56 PM 29.4236 -95.2475 236° Southwest 416 479 14,000 1,258 Climbing Houston Center
Thu 06:56:18 PM 29.4139 -95.2631 234° Southwest 396 456 14,000  Level Houston Center
Thu 06:56:52 PM 29.3575 -95.3489 233° Southwest 441 507 14,000  Level Houston Center
Thu 06:57:20 PM 29.3275 -95.3986 235° Southwest 434 499 14,000  Level Houston Center
Thu 06:58:22 PM 29.2586 -95.5136 236° Southwest 436 502 14,000 48 Level Houston Center
Thu 06:59:24 PM 29.1875 -95.6258 234° Southwest 436 502 14,100  Climbing Houston Center
Thu 07:00:26 PM 29.1167 -95.7394 235° Southwest 437 503 14,000 -48 Descending Houston Center
Thu 07:01:28 PM 29.0489 -95.8544 236° Southwest 436 502 14,000 -48 Level Houston Center
Thu 07:02:30 PM 28.9661 -95.9853 234° Southwest 437 503 13,900 -1,065 Descending Houston Center
Thu 07:03:32 PM 28.9389 -96.1108 256° West 408 470 11,800 -2,274 Descending Houston Center
Thu 07:04:34 PM 28.9281 -96.2219 264° West 366 421 9,200 -2,419 Descending Houston Center
Thu 07:05:36 PM 28.9192 -96.3181 264° West 322 371 6,800 -2,177 Descending Houston Center
Thu 07:06:38 PM 28.9083 -96.4136 263° West 305 351 4,700 -1,839 Descending Houston Center
Thu 07:07:40 PM 28.8781 -96.5014 249° West 307 353 3,000 -871 Descending Houston Center
Thu 07:08:42 PM 28.8194 -96.5836 231° Southwest 286 329 2,900  Descending Houston Center
Thu 07:09:44 PM 28.7772 -96.6508 234° Southwest 274 315 3,000  Climbing Houston Center
Thu 07:10:46 PM 28.7331 -96.7222 235° Southwest 270 311 2,900 -48 Descending Houston Center
Thu 07:11:48 PM 28.7483 -96.7911 284° West 259 298 2,900 -484 Level Houston Center
Thu 07:12:50 PM 28.7833 -96.8350 312° West 216 249 1,900 -919 Descending Houston Center
Thu 07:13:52 PM 28.8156 -96.8756 312° West 190 219 1,000 -774 Descending Houston Center
Thu 07:14:54 PM 28.8492 -96.9169 313° West 179 206 300 484 Descending Houston Center
Thu 07:15:56 PM 28.8975 -96.9764 313° West 214 246 2,000 1,306 Climbing Houston Center
Thu 07:16:58 PM 28.9481 -97.0267 319° Northwest 238 274 3,000 484 Climbing Houston Center
Thu 07:18:00 PM 29.0036 -96.9767 38° Northeast 252 290 3,000  Level Houston Center
Thu 07:19:01 PM 28.9817 -96.9111 111° Southeast 252 290 3,000  Level Houston Center
Thu 07:20:03 PM 28.9344 -96.8456 129° Southeast 260 299 3,000  Level Houston Center
Thu 07:21:05 PM 28.8575 -96.8114 159° South 285 328 3,000  Level Houston Center
Thu 07:22:07 PM 28.7792 -96.7631 152° Southeast 277 319 3,000  Level Houston Center
Thu 07:23:09 PM 28.7517 -96.6964 115° Southeast 257 296 3,000  Level Houston Center
Thu 07:24:11 PM 28.7233 -96.7558 241° Southwest 265 305 3,000 -581 Level Houston Center
Thu 07:25:13 PM 28.7664 -96.8158 309° West 251 289 1,800 -823 Descending Houston Center
Thu 07:26:15 PM 28.8078 -96.8661 313° West 236 272 1,300 -683 Descending Houston Center
Thu 07:27:16 PM 28.8372 -96.9025 313° West 190 219 400 -195 Descending Houston Center
Thu 07:28:18 PM 28.8694 -96.9422 313° West 174 200 900 1,258 Climbing Houston Center
Thu 07:29:20 PM 28.9344 -97.0231 313° West 252 290 3,000 2,419 Climbing Houston Center
Thu 07:30:22 PM 29.0061 -97.0850 323° Northwest 295 339 5,900 2,468 Climbing Houston Center
Thu 07:31:24 PM 29.0919 -97.0442 23° Northeast 328 377 8,100 2,468 Climbing Houston Center
Thu 07:32:26 PM 29.1364 -96.9264 67° East 398 458 11,000 1,403 Climbing Houston Center
Thu 07:33:28 PM 29.1539 -96.7964 81° East 421 484 11,000 484 Level Houston Center
Thu 07:34:30 PM 29.1831 -96.6433 78° East 419 482 12,000 435 Climbing Houston Center
Thu 07:35:32 PM 29.2103 -96.5117 77° East 426 490 11,900 -49 Descending Houston Center
Thu 07:36:33 PM 29.2367 -96.3803 77° East 428 493 11,900  Level Houston Center
Thu 07:37:53 PM 29.2711 -96.1972 78° East 412 474 11,900  Level Houston Center
Thu 07:38:37 PM 29.2867 -96.1247 76° East 411 473 11,900 107 Level Houston Center
Thu 07:38:49 PM 29.2947 -96.0797 78° East 409 471 12,000 83 Climbing Houston Center
Thu 07:39:49 PM 29.3547 -95.9747 57° Northeast 402 463 12,000 54 Level Houston Center
Thu 07:40:41 PM 29.3781 -95.8911 72° East 403 464 12,100  Climbing Houston Center
Thu 07:40:50 PM 29.3758 -95.8575 94° East 368 423 12,000 -581 Descending Houston Center
Thu 07:41:43 PM 29.3717 -95.7739 93° East 374 430 11,500 -984 Descending Houston Center
Thu 07:41:51 PM 29.3697 -95.7383 94° East 379 436 11,000 -1,839 Descending Houston Center
Thu 07:42:45 PM 29.3644 -95.6336 93° East 368 423 9,600 -1,574 Descending Houston Center
Thu 07:42:52 PM 29.3633 -95.6217 96° East 359 413 9,400 -1,588 Descending Houston Center
Thu 07:43:53 PM 29.3550 -95.5075 95° East 339 390 7,800 -1,231 Descending Houston Center
Thu 07:44:49 PM 29.3494 -95.4253 94° East 321 369 7,000 -787 Descending Houston Center
Thu 07:44:54 PM 29.3483 -95.4100 95° East 292 336 7,000 -194 Level Houston Center
Thu 07:45:51 PM 29.3408 -95.3325 96° East 299 344 6,800 -393 Descending Houston Center
Thu 07:45:55 PM 29.3394 -95.3128 95° East 324 373 6,600 -1,969 Descending Houston Center
Thu 07:46:55 PM 29.3328 -95.2200 95° East 274 315 4,700 -1,774 Descending Houston Center
Thu 07:47:50 PM 29.3544 -95.1600 67° East 220 253 3,200 -1,700 Descending Houston Center
Thu 07:47:55 PM 29.3594 -95.1592 North 251 289 3,000 -1,180 Descending Houston Center
Thu 07:48:51 PM 29.4156 -95.1597 360° North 219 252 2,000 -952 Descending Houston Center
Thu 07:48:58 PM 29.4200 -95.1597 360° North 220 253 2,000  Level Houston Center
Thu 07:49:52 PM 29.4767 -95.1619 358° North 198 228 2,000  Level Houston Center
Thu 07:50:00 PM 29.4792 -95.1608 21° North 216 249 2,000 -689 Level Houston Center
Thu 07:50:53 PM 29.5292 -95.1628 358° North 161 185 1,300 -677 Descending Houston Center
Thu 07:51:02 PM 29.5306 -95.1622 19° North 197 227 1,300 -689 Level Houston Center
Thu 07:51:54 PM 29.5692 -95.1625 360° North 142 163 600 -677 Descending Houston Center
Thu 07:52:04 PM 29.5686 -95.1631 221° Southwest 159 183 600 -333 Level Houston Center
Thu 07:53:06 PM 29.6081 -95.1639 359° North 148 170 200 190 Descending Houston Center
Thu 07:53:07 PM 29.6261 -95.1653 356° North 224 258 800 2,710 Climbing Houston Center
Thu 07:53:37 PM 29.6364 -95.1422 63° Northeast 266 306 1,600 787 Climbing Houston Center
Thu 07:54:08 PM 29.6053 -95.1322 164° South 281 323 1,600 -492 Level Houston Center
Thu 07:54:38 PM 29.5689 -95.1386 189° South 215 247 1,100 -1,180 Descending Houston Center
Thu 07:55:09 PM 29.5736 -95.1611 284° West 200 230 400 -65 Descending Houston Center
Thu 07:56:10 PM 29.6261 -95.1653 356° North 236 272 1,000 -290 Climbing Houston Center
Thu 07:56:11 PM 29.6189 -95.1633 167° South 167 192 100 735 Descending Houston Center
Thu 07:56:59 PM 29.6061 -95.1317 115° Southeast 270 311 1,600 365 Climbing Houston Center
Thu 07:58:06 PM 29.5667 -95.1581 210° Southwest 183 211 800 -247 Descending Houston Center
Thu 07:59:25 PM 29.6303 -95.1647 355° North 242 278 1,000 466 Climbing Houston Center
Thu 08:00:02 PM 29.6228 -95.1319 105° East 285 328 1,700 184 Climbing Houston Center
Thu 08:01:03 PM 29.5558 -95.1331 181° South 221 254 1,300 -393 Descending Houston Center

Login

Don't have an account? Register now (free) for customized features, flight alerts, and more!